N2849F CYXY-ZZZZ
Flight info
| Callsign | N2849F |
|---|---|
| Flight time | N/A |
| Altitude | 8500 |
| Route | 601135N1344213W 594811N1350215W 594410N1345409W 594139N1350423W 592844N1351811W 591735N1352317W 590131N1352048W 584933N1351419W 584716N1353121W 584302N1353720W DCT 583103N1353105W DCT 582456N1352612W |
| Aircraft | BE36/L-BDFGLORY/S |
Departure
| Time | 2026-04-18 02:46 |
|---|---|
| Airport | Whitehorse / Erik Nielsen International Airport (CYXY) |
Arrival
| Time | N/A |
|---|---|
| Airport | ZZZZ |
| Time | Latitude | Longitude | Altitude | Speed | Heading |
|---|---|---|---|---|---|
| 2026-04-18 02:40 | 60.70770 | -135.07781 | 2283 ft | 0 kts | 249° |
| 2026-04-18 02:41 | 60.70776 | -135.07803 | 2283 ft | 5 kts | 351° |
| 2026-04-18 02:41 | 60.70834 | -135.07714 | 2285 ft | 15 kts | 37° |
| 2026-04-18 02:41 | 60.70944 | -135.07533 | 2287 ft | 25 kts | 36° |
| 2026-04-18 02:41 | 60.71070 | -135.07344 | 2292 ft | 23 kts | 34° |
| 2026-04-18 02:42 | 60.71244 | -135.07273 | 2283 ft | 31 kts | 353° |
| 2026-04-18 02:42 | 60.71482 | -135.07411 | 2281 ft | 39 kts | 340° |
| 2026-04-18 02:42 | 60.71677 | -135.07559 | 2282 ft | 18 kts | 341° |
| 2026-04-18 02:42 | 60.71738 | -135.07559 | 2283 ft | 0 kts | 52° |
| 2026-04-18 02:44 | 60.71769 | -135.07412 | 2286 ft | 25 kts | 53° |
| 2026-04-18 02:45 | 60.71743 | -135.07329 | 2286 ft | 1 kts | 155° |
| 2026-04-18 02:45 | 60.71733 | -135.07321 | 2291 ft | 16 kts | 160° |
| 2026-04-18 02:45 | 60.71350 | -135.07031 | 2297 ft | 89 kts | 159° |
| 2026-04-18 02:46 | 60.70779 | -135.06521 | 2705 ft | 88 kts | 155° |
| 2026-04-18 02:46 | 60.70307 | -135.05746 | 3023 ft | 90 kts | 121° |
| 2026-04-18 02:46 | 60.69946 | -135.04910 | 3276 ft | 76 kts | 165° |
| 2026-04-18 02:46 | 60.69484 | -135.04407 | 3551 ft | 75 kts | 159° |
| 2026-04-18 02:47 | 60.68986 | -135.04123 | 3876 ft | 72 kts | 165° |
| 2026-04-18 02:47 | 60.68495 | -135.03742 | 4014 ft | 85 kts | 163° |
| 2026-04-18 02:47 | 60.67877 | -135.03322 | 4036 ft | 103 kts | 163° |
| 2026-04-18 02:47 | 60.67171 | -135.02836 | 4222 ft | 110 kts | 162° |
| 2026-04-18 02:48 | 60.66516 | -135.02385 | 4361 ft | 114 kts | 163° |
| 2026-04-18 02:48 | 60.65736 | -135.01830 | 4512 ft | 124 kts | 162° |
| 2026-04-18 02:48 | 60.64901 | -135.01245 | 4647 ft | 130 kts | 164° |
| 2026-04-18 02:48 | 60.64030 | -135.00647 | 4791 ft | 134 kts | 164° |
| 2026-04-18 02:49 | 60.63133 | -135.00029 | 4924 ft | 138 kts | 164° |
| 2026-04-18 02:49 | 60.62218 | -134.99403 | 5193 ft | 139 kts | 165° |
| 2026-04-18 02:49 | 60.61299 | -134.98771 | 5318 ft | 140 kts | 165° |
| 2026-04-18 02:49 | 60.60378 | -134.98136 | 5455 ft | 140 kts | 164° |
| 2026-04-18 02:50 | 60.59454 | -134.97499 | 5577 ft | 141 kts | 164° |
| 2026-04-18 02:50 | 60.58536 | -134.96865 | 5754 ft | 138 kts | 166° |
| 2026-04-18 02:50 | 60.57634 | -134.96243 | 5933 ft | 136 kts | 166° |
| 2026-04-18 02:50 | 60.56740 | -134.95627 | 6106 ft | 135 kts | 166° |
| 2026-04-18 02:51 | 60.55914 | -134.94781 | 6278 ft | 140 kts | 141° |
| 2026-04-18 02:51 | 60.55277 | -134.93265 | 6459 ft | 142 kts | 134° |
| 2026-04-18 02:51 | 60.54691 | -134.91633 | 6646 ft | 144 kts | 132° |
| 2026-04-18 02:51 | 60.54004 | -134.90216 | 6820 ft | 138 kts | 160° |
| 2026-04-18 02:52 | 60.53100 | -134.89648 | 6959 ft | 136 kts | 176° |
| 2026-04-18 02:52 | 60.52168 | -134.89262 | 7102 ft | 137 kts | 176° |
| 2026-04-18 02:52 | 60.51234 | -134.88836 | 7253 ft | 138 kts | 174° |
| 2026-04-18 02:52 | 60.50295 | -134.88354 | 7405 ft | 140 kts | 174° |
| 2026-04-18 02:53 | 60.49353 | -134.87834 | 7560 ft | 141 kts | 172° |
| 2026-04-18 02:53 | 60.48406 | -134.87283 | 7711 ft | 142 kts | 172° |
| 2026-04-18 02:53 | 60.47451 | -134.86735 | 7863 ft | 144 kts | 173° |
| 2026-04-18 02:53 | 60.46500 | -134.86182 | 8029 ft | 144 kts | 172° |
| 2026-04-18 02:54 | 60.45532 | -134.85610 | 8194 ft | 145 kts | 172° |
| 2026-04-18 02:54 | 60.44558 | -134.85036 | 8349 ft | 146 kts | 171° |
| 2026-04-18 02:54 | 60.43577 | -134.84460 | 8445 ft | 149 kts | 172° |
| 2026-04-18 02:54 | 60.42564 | -134.83875 | 8460 ft | 154 kts | 171° |
| 2026-04-18 02:55 | 60.41511 | -134.83266 | 8477 ft | 160 kts | 171° |
| 2026-04-18 02:55 | 60.40428 | -134.82632 | 8482 ft | 164 kts | 171° |
| 2026-04-18 02:55 | 60.39328 | -134.81985 | 8478 ft | 166 kts | 171° |
| 2026-04-18 02:55 | 60.38214 | -134.81330 | 8477 ft | 169 kts | 171° |
| 2026-04-18 02:56 | 60.37040 | -134.80644 | 8482 ft | 182 kts | 170° |
| 2026-04-18 02:56 | 60.35821 | -134.79932 | 8475 ft | 182 kts | 170° |
| 2026-04-18 02:56 | 60.33377 | -134.78495 | 8473 ft | 183 kts | 170° |
| 2026-04-18 02:57 | 60.32152 | -134.77778 | 8472 ft | 183 kts | 170° |
| 2026-04-18 02:57 | 60.30927 | -134.77059 | 8474 ft | 184 kts | 170° |
| 2026-04-18 02:57 | 60.29698 | -134.76344 | 8473 ft | 183 kts | 170° |
| 2026-04-18 02:57 | 60.28474 | -134.75632 | 8475 ft | 184 kts | 170° |
| 2026-04-18 02:58 | 60.27261 | -134.74925 | 8487 ft | 175 kts | 171° |
| 2026-04-18 02:58 | 60.26138 | -134.74266 | 8494 ft | 166 kts | 171° |
| 2026-04-18 02:58 | 60.25051 | -134.73637 | 8494 ft | 163 kts | 171° |
| 2026-04-18 02:58 | 60.23964 | -134.72997 | 8499 ft | 162 kts | 171° |
| 2026-04-18 02:59 | 60.22885 | -134.72363 | 8502 ft | 162 kts | 169° |
| 2026-04-18 02:59 | 60.21830 | -134.71477 | 8501 ft | 165 kts | 160° |
| 2026-04-18 02:59 | 60.20794 | -134.70497 | 8502 ft | 163 kts | 166° |
| 2026-04-18 02:59 | 60.19718 | -134.69887 | 8496 ft | 157 kts | 183° |
| 2026-04-18 03:00 | 60.18710 | -134.70368 | 8487 ft | 147 kts | 213° |
| 2026-04-18 03:00 | 60.17831 | -134.71399 | 8481 ft | 146 kts | 212° |
| 2026-04-18 03:00 | 60.16923 | -134.72321 | 8479 ft | 146 kts | 210° |
| 2026-04-18 03:00 | 60.16004 | -134.73183 | 8474 ft | 145 kts | 209° |
| 2026-04-18 03:01 | 60.15079 | -134.74016 | 8473 ft | 145 kts | 208° |
| 2026-04-18 03:01 | 60.14134 | -134.74651 | 8464 ft | 146 kts | 198° |
| 2026-04-18 03:01 | 60.13160 | -134.75177 | 8463 ft | 144 kts | 204° |
| 2026-04-18 03:01 | 60.12245 | -134.75954 | 8480 ft | 143 kts | 210° |
| 2026-04-18 03:02 | 60.11353 | -134.76843 | 8499 ft | 144 kts | 211° |
| 2026-04-18 03:02 | 60.10462 | -134.77738 | 8485 ft | 143 kts | 210° |
| 2026-04-18 03:02 | 60.09561 | -134.78584 | 8508 ft | 144 kts | 209° |
| 2026-04-18 03:02 | 60.08655 | -134.79457 | 8508 ft | 145 kts | 210° |
| 2026-04-18 03:03 | 60.07739 | -134.80316 | 8517 ft | 146 kts | 209° |
| 2026-04-18 03:03 | 60.06807 | -134.81155 | 8515 ft | 147 kts | 208° |
| 2026-04-18 03:03 | 60.05866 | -134.81989 | 8519 ft | 148 kts | 208° |
| 2026-04-18 03:03 | 60.04914 | -134.82813 | 8511 ft | 149 kts | 208° |
| 2026-04-18 03:04 | 60.03967 | -134.83630 | 8505 ft | 149 kts | 208° |
| 2026-04-18 03:04 | 60.03017 | -134.84446 | 8498 ft | 148 kts | 208° |
| 2026-04-18 03:04 | 60.02079 | -134.85259 | 8498 ft | 146 kts | 206° |
| 2026-04-18 03:04 | 60.01148 | -134.86057 | 8489 ft | 144 kts | 207° |
| 2026-04-18 03:05 | 60.00230 | -134.86855 | 8498 ft | 144 kts | 207° |
| 2026-04-18 03:05 | 59.99311 | -134.87647 | 8496 ft | 144 kts | 206° |
| 2026-04-18 03:05 | 59.98390 | -134.88419 | 8500 ft | 143 kts | 206° |
| 2026-04-18 03:05 | 59.97476 | -134.89213 | 8505 ft | 144 kts | 207° |
| 2026-04-18 03:06 | 59.96562 | -134.90000 | 8527 ft | 146 kts | 206° |
| 2026-04-18 03:06 | 59.95625 | -134.90791 | 8508 ft | 147 kts | 206° |
| 2026-04-18 03:06 | 59.94684 | -134.91591 | 8494 ft | 147 kts | 207° |
| 2026-04-18 03:06 | 59.93744 | -134.92395 | 8485 ft | 147 kts | 207° |
| 2026-04-18 03:07 | 59.92803 | -134.93204 | 8483 ft | 146 kts | 207° |
| 2026-04-18 03:07 | 59.91869 | -134.94006 | 8484 ft | 146 kts | 206° |
| 2026-04-18 03:07 | 59.90934 | -134.94810 | 8490 ft | 146 kts | 206° |
| 2026-04-18 03:07 | 59.89998 | -134.95620 | 8499 ft | 147 kts | 206° |
| 2026-04-18 03:08 | 59.89068 | -134.96405 | 8493 ft | 147 kts | 206° |
| 2026-04-18 03:08 | 59.88130 | -134.97197 | 8495 ft | 147 kts | 206° |
| 2026-04-18 03:08 | 59.87190 | -134.97998 | 8494 ft | 147 kts | 206° |
| 2026-04-18 03:08 | 59.86250 | -134.98802 | 8491 ft | 147 kts | 206° |
| 2026-04-18 03:09 | 59.85314 | -134.99601 | 8498 ft | 146 kts | 206° |
| 2026-04-18 03:09 | 59.84379 | -135.00398 | 8503 ft | 146 kts | 206° |
| 2026-04-18 03:09 | 59.83446 | -135.01193 | 8508 ft | 146 kts | 206° |
| 2026-04-18 03:09 | 59.82510 | -135.01989 | 8510 ft | 146 kts | 206° |
| 2026-04-18 03:10 | 59.81566 | -135.02758 | 8508 ft | 147 kts | 203° |
| 2026-04-18 03:10 | 59.80555 | -135.03131 | 8509 ft | 152 kts | 185° |
| 2026-04-18 03:10 | 59.79519 | -135.02547 | 8509 ft | 162 kts | 158° |
| 2026-04-18 03:10 | 59.78669 | -135.00999 | 8513 ft | 171 kts | 134° |
| 2026-04-18 03:11 | 59.77960 | -134.99105 | 8504 ft | 168 kts | 141° |
| 2026-04-18 03:11 | 59.77051 | -134.97774 | 8494 ft | 159 kts | 161° |
| 2026-04-18 03:11 | 59.76030 | -134.97068 | 8496 ft | 153 kts | 175° |
| 2026-04-18 03:11 | 59.74989 | -134.96868 | 8482 ft | 148 kts | 187° |
| 2026-04-18 03:12 | 59.73983 | -134.97113 | 8493 ft | 144 kts | 198° |
| 2026-04-18 03:12 | 59.73039 | -134.97752 | 8506 ft | 143 kts | 208° |
| 2026-04-18 03:12 | 59.72185 | -134.98752 | 8511 ft | 143 kts | 218° |
| 2026-04-18 03:12 | 59.71454 | -135.00078 | 8511 ft | 143 kts | 229° |
| 2026-04-18 03:13 | 59.70891 | -135.01667 | 8513 ft | 143 kts | 241° |
| 2026-04-18 03:13 | 59.70491 | -135.03483 | 8513 ft | 144 kts | 243° |
| 2026-04-18 03:13 | 59.70050 | -135.05312 | 8512 ft | 145 kts | 241° |
| 2026-04-18 03:13 | 59.69538 | -135.07020 | 8510 ft | 144 kts | 228° |
| 2026-04-18 03:14 | 59.68718 | -135.08126 | 8511 ft | 145 kts | 205° |
| 2026-04-18 03:14 | 59.67804 | -135.08961 | 8514 ft | 145 kts | 210° |
| 2026-04-18 03:14 | 59.66926 | -135.09908 | 8515 ft | 145 kts | 211° |
| 2026-04-18 03:14 | 59.66044 | -135.10894 | 8518 ft | 146 kts | 211° |
| 2026-04-18 03:15 | 59.65159 | -135.11879 | 8518 ft | 146 kts | 211° |
| 2026-04-18 03:15 | 59.64272 | -135.12859 | 8516 ft | 146 kts | 211° |
| 2026-04-18 03:15 | 59.63380 | -135.13832 | 8514 ft | 146 kts | 211° |
| 2026-04-18 03:15 | 59.62498 | -135.14815 | 8508 ft | 144 kts | 212° |
| 2026-04-18 03:16 | 59.61623 | -135.15772 | 8510 ft | 143 kts | 210° |
| 2026-04-18 03:16 | 59.60748 | -135.16680 | 8519 ft | 142 kts | 210° |
| 2026-04-18 03:16 | 59.59872 | -135.17595 | 8529 ft | 143 kts | 210° |
| 2026-04-18 03:16 | 59.58990 | -135.18519 | 8537 ft | 144 kts | 211° |
| 2026-04-18 03:17 | 59.58110 | -135.19467 | 8527 ft | 144 kts | 210° |
| 2026-04-18 03:17 | 59.57223 | -135.20397 | 8512 ft | 144 kts | 209° |
| 2026-04-18 03:17 | 59.56344 | -135.21315 | 8501 ft | 142 kts | 210° |
| 2026-04-18 03:17 | 59.55429 | -135.22065 | 8193 ft | 157 kts | 193° |
| 2026-04-18 03:18 | 59.54886 | -135.21961 | 8137 ft | 163 kts | 165° |
| 2026-04-18 03:18 | 59.54355 | -135.19795 | 6931 ft | 215 kts | 93° |
| 2026-04-18 03:18 | 59.54399 | -135.19370 | 6762 ft | 225 kts | 72° |
| 2026-04-18 03:19 | 59.54401 | -135.19358 | 6758 ft | 225 kts | 71° |
| 2026-04-18 03:19 | 59.54447 | -135.19161 | 6655 ft | 219 kts | 60° |
| 2026-04-18 03:19 | 59.55333 | -135.20080 | 4064 ft | 235 kts | 324° |
| 2026-04-18 03:20 | 59.56586 | -135.21101 | 5258 ft | 174 kts | 341° |
| 2026-04-18 03:20 | 59.57736 | -135.21665 | 5493 ft | 167 kts | 335° |
| 2026-04-18 03:20 | 59.58594 | -135.22820 | 5992 ft | 136 kts | 307° |
| 2026-04-18 03:20 | 59.58862 | -135.24360 | 6312 ft | 115 kts | 254° |
| 2026-04-18 03:21 | 59.58418 | -135.25662 | 6461 ft | 120 kts | 223° |
| 2026-04-18 03:21 | 59.57822 | -135.27013 | 6531 ft | 138 kts | 226° |
| 2026-04-18 03:21 | 59.57196 | -135.28454 | 6591 ft | 148 kts | 229° |
| 2026-04-18 03:21 | 59.56548 | -135.29875 | 7065 ft | 126 kts | 220° |
| 2026-04-18 03:22 | 59.55719 | -135.30418 | 7135 ft | 148 kts | 172° |
| 2026-04-18 03:22 | 59.54699 | -135.29671 | 7251 ft | 156 kts | 171° |
| 2026-04-18 03:22 | 59.53633 | -135.29409 | 7461 ft | 152 kts | 183° |
| 2026-04-18 03:22 | 59.52608 | -135.29494 | 7749 ft | 143 kts | 188° |
| 2026-04-18 03:23 | 59.51958 | -135.29612 | 7948 ft | 140 kts | 190° |
| 2026-04-18 03:23 | 59.51008 | -135.29809 | 8231 ft | 135 kts | 191° |
| 2026-04-18 03:23 | 59.49765 | -135.30036 | 8480 ft | 139 kts | 190° |
| 2026-04-18 03:23 | 59.48774 | -135.30203 | 8524 ft | 148 kts | 190° |
| 2026-04-18 03:24 | 59.48076 | -135.30319 | 8521 ft | 150 kts | 191° |
| 2026-04-18 03:24 | 59.47060 | -135.30723 | 8512 ft | 149 kts | 200° |
| 2026-04-18 03:24 | 59.46063 | -135.31281 | 8513 ft | 150 kts | 198° |
| 2026-04-18 03:24 | 59.45040 | -135.31731 | 8507 ft | 151 kts | 197° |
| 2026-04-18 03:25 | 59.44041 | -135.32127 | 8500 ft | 148 kts | 195° |
| 2026-04-18 03:25 | 59.43038 | -135.32552 | 8494 ft | 145 kts | 197° |
| 2026-04-18 03:25 | 59.42067 | -135.33030 | 8500 ft | 143 kts | 197° |
| 2026-04-18 03:25 | 59.41097 | -135.33491 | 8517 ft | 143 kts | 195° |
| 2026-04-18 03:26 | 59.40123 | -135.33928 | 8519 ft | 144 kts | 195° |
| 2026-04-18 03:26 | 59.39145 | -135.34362 | 8517 ft | 144 kts | 195° |
| 2026-04-18 03:26 | 59.38170 | -135.34798 | 8512 ft | 143 kts | 196° |
| 2026-04-18 03:26 | 59.37203 | -135.35244 | 8498 ft | 142 kts | 195° |
| 2026-04-18 03:27 | 59.36237 | -135.35674 | 8513 ft | 143 kts | 196° |
| 2026-04-18 03:27 | 59.35268 | -135.36107 | 8517 ft | 143 kts | 195° |
| 2026-04-18 03:27 | 59.34301 | -135.36545 | 8512 ft | 143 kts | 196° |
| 2026-04-18 03:27 | 59.33337 | -135.36998 | 8525 ft | 142 kts | 196° |
| 2026-04-18 03:28 | 59.32372 | -135.37444 | 8524 ft | 142 kts | 196° |
| 2026-04-18 03:28 | 59.31411 | -135.37885 | 8525 ft | 142 kts | 196° |
| 2026-04-18 03:28 | 59.30461 | -135.38317 | 8525 ft | 142 kts | 196° |
| 2026-04-18 03:28 | 59.29496 | -135.38727 | 8525 ft | 142 kts | 191° |
| 2026-04-18 03:29 | 59.28497 | -135.38697 | 8525 ft | 145 kts | 179° |
| 2026-04-18 03:29 | 59.27492 | -135.38522 | 8523 ft | 145 kts | 180° |
| 2026-04-18 03:29 | 59.26490 | -135.38366 | 8526 ft | 144 kts | 181° |
| 2026-04-18 03:29 | 59.25484 | -135.38217 | 8526 ft | 145 kts | 180° |
| 2026-04-18 03:30 | 59.24480 | -135.38065 | 8528 ft | 145 kts | 180° |
| 2026-04-18 03:30 | 59.23475 | -135.37913 | 8527 ft | 145 kts | 180° |
| 2026-04-18 03:30 | 59.22484 | -135.37760 | 8528 ft | 145 kts | 180° |
| 2026-04-18 03:30 | 59.21478 | -135.37604 | 8530 ft | 145 kts | 180° |
| 2026-04-18 03:31 | 59.20479 | -135.37413 | 8534 ft | 145 kts | 178° |
| 2026-04-18 03:31 | 59.19473 | -135.37134 | 8562 ft | 147 kts | 179° |
| 2026-04-18 03:31 | 59.18459 | -135.37055 | 8530 ft | 144 kts | 185° |
| 2026-04-18 03:31 | 59.17456 | -135.37009 | 8546 ft | 145 kts | 181° |
| 2026-04-18 03:32 | 59.16441 | -135.36855 | 8553 ft | 147 kts | 180° |
| 2026-04-18 03:32 | 59.15425 | -135.36678 | 8541 ft | 147 kts | 180° |
| 2026-04-18 03:32 | 59.14410 | -135.36518 | 8540 ft | 146 kts | 180° |
| 2026-04-18 03:32 | 59.13394 | -135.36352 | 8542 ft | 147 kts | 180° |
| 2026-04-18 03:33 | 59.12378 | -135.36189 | 8530 ft | 146 kts | 180° |
| 2026-04-18 03:33 | 59.11363 | -135.36027 | 8533 ft | 146 kts | 180° |
| 2026-04-18 03:33 | 59.10351 | -135.35877 | 8531 ft | 146 kts | 180° |
| 2026-04-18 03:33 | 59.09341 | -135.35723 | 8529 ft | 145 kts | 180° |
| 2026-04-18 03:34 | 59.08337 | -135.35567 | 8529 ft | 145 kts | 180° |
| 2026-04-18 03:34 | 59.07336 | -135.35412 | 8528 ft | 144 kts | 180° |
| 2026-04-18 03:34 | 59.06339 | -135.35258 | 8527 ft | 143 kts | 181° |
| 2026-04-18 03:34 | 59.05347 | -135.35113 | 8549 ft | 143 kts | 180° |
| 2026-04-18 03:35 | 59.04356 | -135.34959 | 8547 ft | 143 kts | 180° |
| 2026-04-18 03:35 | 59.03365 | -135.34812 | 8552 ft | 143 kts | 180° |
| 2026-04-18 03:35 | 59.02371 | -135.34631 | 8551 ft | 144 kts | 176° |
| 2026-04-18 03:35 | 59.01391 | -135.34163 | 8549 ft | 146 kts | 166° |
| 2026-04-18 03:36 | 59.00433 | -135.33504 | 8547 ft | 146 kts | 167° |
| 2026-04-18 03:36 | 58.99465 | -135.32946 | 8552 ft | 145 kts | 170° |
| 2026-04-18 03:36 | 58.98493 | -135.32430 | 8551 ft | 144 kts | 170° |
| 2026-04-18 03:36 | 58.97521 | -135.31923 | 8559 ft | 145 kts | 171° |
| 2026-04-18 03:37 | 58.96539 | -135.31424 | 8562 ft | 146 kts | 170° |
| 2026-04-18 03:37 | 58.95555 | -135.30900 | 8571 ft | 147 kts | 170° |
| 2026-04-18 03:37 | 58.94568 | -135.30363 | 8567 ft | 148 kts | 169° |
| 2026-04-18 03:37 | 58.93590 | -135.29831 | 8563 ft | 148 kts | 169° |
| 2026-04-18 03:38 | 58.92600 | -135.29291 | 8562 ft | 148 kts | 169° |
| 2026-04-18 03:38 | 58.91611 | -135.28754 | 8566 ft | 148 kts | 170° |
| 2026-04-18 03:38 | 58.90624 | -135.28218 | 8566 ft | 147 kts | 169° |
| 2026-04-18 03:38 | 58.89636 | -135.27683 | 8566 ft | 147 kts | 170° |
| 2026-04-18 03:39 | 58.88650 | -135.27149 | 8567 ft | 147 kts | 169° |
| 2026-04-18 03:39 | 58.87665 | -135.26618 | 8564 ft | 147 kts | 170° |
| 2026-04-18 03:39 | 58.86678 | -135.26086 | 8563 ft | 147 kts | 170° |
| 2026-04-18 03:39 | 58.85693 | -135.25553 | 8561 ft | 147 kts | 170° |
| 2026-04-18 03:40 | 58.84709 | -135.25022 | 8559 ft | 147 kts | 169° |
| 2026-04-18 03:40 | 58.83726 | -135.24495 | 8563 ft | 146 kts | 172° |
| 2026-04-18 03:40 | 58.82761 | -135.24641 | 8563 ft | 140 kts | 208° |
| 2026-04-18 03:40 | 58.82126 | -135.26039 | 8566 ft | 144 kts | 241° |
| 2026-04-18 03:41 | 58.81803 | -135.27884 | 8564 ft | 146 kts | 247° |
| 2026-04-18 03:41 | 58.81515 | -135.29710 | 8534 ft | 141 kts | 248° |
| 2026-04-18 03:41 | 58.81333 | -135.31592 | 8522 ft | 142 kts | 257° |
| 2026-04-18 03:41 | 58.81226 | -135.33501 | 8573 ft | 144 kts | 254° |
| 2026-04-18 03:42 | 58.81008 | -135.35409 | 8595 ft | 148 kts | 250° |
| 2026-04-18 03:42 | 58.80756 | -135.37347 | 8575 ft | 150 kts | 250° |
| 2026-04-18 03:42 | 58.80506 | -135.39302 | 8599 ft | 152 kts | 250° |
| 2026-04-18 03:42 | 58.80249 | -135.41291 | 8604 ft | 154 kts | 250° |
| 2026-04-18 03:43 | 58.79993 | -135.43286 | 8576 ft | 153 kts | 250° |
| 2026-04-18 03:43 | 58.79694 | -135.45185 | 8563 ft | 149 kts | 248° |
| 2026-04-18 03:43 | 58.79454 | -135.47144 | 8522 ft | 151 kts | 252° |
| 2026-04-18 03:43 | 58.79219 | -135.49080 | 8398 ft | 142 kts | 246° |
| 2026-04-18 03:44 | 58.79005 | -135.50927 | 8435 ft | 141 kts | 250° |
| 2026-04-18 03:44 | 58.78574 | -135.52571 | 8481 ft | 138 kts | 226° |
| 2026-04-18 03:44 | 58.77812 | -135.53657 | 8485 ft | 136 kts | 211° |
| 2026-04-18 03:44 | 58.77022 | -135.54682 | 8502 ft | 137 kts | 214° |
| 2026-04-18 03:45 | 58.76258 | -135.55791 | 8504 ft | 137 kts | 215° |
| 2026-04-18 03:45 | 58.75486 | -135.56881 | 8510 ft | 138 kts | 214° |
| 2026-04-18 03:45 | 58.74716 | -135.57988 | 8502 ft | 138 kts | 215° |
| 2026-04-18 03:45 | 58.73941 | -135.59078 | 8521 ft | 138 kts | 213° |
| 2026-04-18 03:46 | 58.73147 | -135.60145 | 8532 ft | 140 kts | 213° |
| 2026-04-18 03:46 | 58.72339 | -135.61191 | 8524 ft | 140 kts | 208° |
| 2026-04-18 03:46 | 58.71416 | -135.61742 | 8521 ft | 141 kts | 187° |
| 2026-04-18 03:46 | 58.70436 | -135.61529 | 8528 ft | 144 kts | 170° |
| 2026-04-18 03:47 | 58.69464 | -135.61020 | 8543 ft | 146 kts | 170° |
| 2026-04-18 03:47 | 58.68475 | -135.60517 | 8546 ft | 147 kts | 169° |
| 2026-04-18 03:47 | 58.67502 | -135.60005 | 8489 ft | 146 kts | 169° |
| 2026-04-18 03:47 | 58.66509 | -135.59481 | 8302 ft | 149 kts | 169° |
| 2026-04-18 03:48 | 58.65512 | -135.58944 | 8091 ft | 147 kts | 169° |
| 2026-04-18 03:48 | 58.64556 | -135.58450 | 7836 ft | 143 kts | 169° |
| 2026-04-18 03:48 | 58.63590 | -135.57944 | 7572 ft | 144 kts | 169° |
| 2026-04-18 03:48 | 58.62622 | -135.57437 | 7298 ft | 144 kts | 169° |
| 2026-04-18 03:49 | 58.61653 | -135.56933 | 7044 ft | 144 kts | 169° |
| 2026-04-18 03:49 | 58.60683 | -135.56431 | 6788 ft | 145 kts | 169° |
| 2026-04-18 03:49 | 58.59713 | -135.55924 | 6539 ft | 145 kts | 168° |
| 2026-04-18 03:49 | 58.58741 | -135.55419 | 6276 ft | 145 kts | 168° |
| 2026-04-18 03:50 | 58.57768 | -135.54913 | 6009 ft | 145 kts | 167° |
| 2026-04-18 03:50 | 58.56793 | -135.54407 | 5746 ft | 145 kts | 167° |
| 2026-04-18 03:50 | 58.55818 | -135.53900 | 5482 ft | 145 kts | 166° |
| 2026-04-18 03:50 | 58.54839 | -135.53392 | 5224 ft | 146 kts | 166° |
| 2026-04-18 03:51 | 58.53860 | -135.52884 | 4962 ft | 146 kts | 166° |
| 2026-04-18 03:51 | 58.52879 | -135.52374 | 4692 ft | 146 kts | 166° |
| 2026-04-18 03:51 | 58.51918 | -135.51852 | 4554 ft | 138 kts | 162° |
| 2026-04-18 03:51 | 58.51056 | -135.51211 | 4529 ft | 128 kts | 158° |
| 2026-04-18 03:52 | 58.50260 | -135.50570 | 4516 ft | 120 kts | 159° |
| 2026-04-18 03:52 | 58.49506 | -135.49972 | 4512 ft | 115 kts | 159° |
| 2026-04-18 03:52 | 58.48783 | -135.49399 | 4505 ft | 110 kts | 159° |
| 2026-04-18 03:52 | 58.48082 | -135.48846 | 4406 ft | 116 kts | 159° |
| 2026-04-18 03:53 | 58.47293 | -135.48233 | 4149 ft | 128 kts | 159° |
| 2026-04-18 03:53 | 58.46447 | -135.47571 | 3904 ft | 134 kts | 158° |
| 2026-04-18 03:53 | 58.45575 | -135.46888 | 3650 ft | 136 kts | 158° |
| 2026-04-18 03:53 | 58.44704 | -135.46205 | 3387 ft | 134 kts | 157° |
| 2026-04-18 03:54 | 58.43844 | -135.45525 | 3128 ft | 133 kts | 157° |
| 2026-04-18 03:54 | 58.42982 | -135.44865 | 2879 ft | 133 kts | 162° |
| 2026-04-18 03:54 | 58.42074 | -135.44576 | 2610 ft | 133 kts | 173° |
| 2026-04-18 03:54 | 58.41165 | -135.44488 | 2346 ft | 133 kts | 175° |
| 2026-04-18 03:55 | 58.40232 | -135.44580 | 2048 ft | 135 kts | 194° |
| 2026-04-18 03:55 | 58.39335 | -135.45147 | 1761 ft | 136 kts | 196° |
| 2026-04-18 03:55 | 58.38453 | -135.45747 | 1462 ft | 136 kts | 198° |
| 2026-04-18 03:55 | 58.37543 | -135.46141 | 1215 ft | 129 kts | 166° |
| 2026-04-18 03:56 | 58.36943 | -135.45155 | 1093 ft | 114 kts | 104° |
| 2026-04-18 03:56 | 58.37187 | -135.43870 | 1046 ft | 108 kts | 38° |
| 2026-04-18 03:56 | 58.37850 | -135.43305 | 992 ft | 101 kts | 19° |
| 2026-04-18 03:56 | 58.38565 | -135.43327 | 802 ft | 109 kts | 351° |
| 2026-04-18 03:57 | 58.40092 | -135.43685 | 492 ft | 97 kts | 11° |
| 2026-04-18 03:57 | 58.40708 | -135.43545 | 333 ft | 89 kts | 21° |
| 2026-04-18 03:57 | 58.41376 | -135.43726 | 108 ft | 104 kts | 329° |
| 2026-04-18 03:58 | 58.41952 | -135.44309 | 102 ft | 88 kts | 331° |
| 2026-04-18 03:58 | 58.42496 | -135.44928 | 378 ft | 98 kts | 314° |
| 2026-04-18 03:58 | 58.42524 | -135.46097 | 493 ft | 100 kts | 220° |
| 2026-04-18 03:58 | 58.41893 | -135.46154 | 661 ft | 109 kts | 154° |
| 2026-04-18 03:59 | 58.41194 | -135.45611 | 641 ft | 102 kts | 161° |
| 2026-04-18 03:59 | 58.40491 | -135.45366 | 548 ft | 106 kts | 168° |
| 2026-04-18 03:59 | 58.39761 | -135.45309 | 439 ft | 92 kts | 180° |
| 2026-04-18 03:59 | 58.39266 | -135.45018 | 472 ft | 75 kts | 128° |
| 2026-04-18 04:00 | 58.39220 | -135.44025 | 507 ft | 92 kts | 62° |
| 2026-04-18 04:00 | 58.39714 | -135.43291 | 576 ft | 90 kts | 21° |
| 2026-04-18 04:00 | 58.40375 | -135.43125 | 430 ft | 104 kts | 6° |
| 2026-04-18 04:00 | 58.41080 | -135.43450 | 132 ft | 100 kts | 335° |
| 2026-04-18 04:01 | 58.41604 | -135.43974 | 43 ft | 69 kts | 332° |
| 2026-04-18 04:01 | 58.41864 | -135.44212 | 43 ft | 9 kts | 358° |
| 2026-04-18 04:01 | 58.41871 | -135.44200 | 44 ft | 2 kts | 101° |
| 2026-04-18 04:01 | 58.41870 | -135.44197 | 43 ft | 0 kts | 178° |
| 2026-04-18 04:02 | 58.41868 | -135.44199 | 43 ft | 0 kts | 214° |